Time;durP1;ratioP1;P1;durP2;ratioP2;P2;SDS_P1;SDS_P2;PMS_P1;PMS_P2;Temp;Humidity;BMP_temperature;BMP_pressure;BME280_temperature;BME280_humidity;BME280_pressure;Samples;Min_cycle;Max_cycle;Signal;HPM_P1;HPM_P2
2022/01/15 00:01:00;;;;;;;0.00;0.00;;;5.60;99.90;;;;;;5022038;28;20053;-58
2022/01/15 00:03:27;;;;;;;0.00;0.00;;;5.70;99.90;;;;;;5020386;28;20071;-58
2022/01/15 00:05:54;;;;;;;0.00;0.00;;;5.60;99.90;;;;;;5022021;28;20057;-58
2022/01/15 00:08:21;;;;;;;0.00;0.00;;;5.60;99.90;;;;;;5004107;28;20068;-58
2022/01/15 00:10:47;;;;;;;0.00;0.00;;;5.60;99.90;;;;;;5021850;28;20056;-60
2022/01/15 00:13:28;;;;;;;0.00;0.00;;;5.60;99.90;;;;;;5020951;28;20045;-58
2022/01/15 00:16:05;;;;;;;0.00;0.00;;;5.60;99.90;;;;;;5021406;28;20088;-58
2022/01/15 00:18:47;;;;;;;0.00;0.00;;;5.60;99.90;;;;;;5020632;28;20409;-58
2022/01/15 00:21:13;;;;;;;0.00;0.00;;;5.60;99.90;;;;;;5021714;28;20049;-58
2022/01/15 00:23:41;;;;;;;0.00;0.00;;;5.60;99.90;;;;;;5021938;28;20048;-58
2022/01/15 00:26:07;;;;;;;0.00;0.00;;;5.60;99.90;;;;;;5021131;28;20409;-58
2022/01/15 00:28:32;;;;;;;0.00;0.00;;;5.90;99.90;;;;;;5028666;28;20045;-57
2022/01/15 00:30:58;;;;;;;0.00;0.00;;;5.60;99.90;;;;;;5024988;28;20073;-57
2022/01/15 00:33:25;;;;;;;0.00;0.00;;;5.60;99.90;;;;;;5020852;28;20544;-58
2022/01/15 00:35:52;;;;;;;0.00;0.00;;;5.60;99.90;;;;;;5002891;28;20045;-58
2022/01/15 00:38:18;;;;;;;0.00;0.00;;;5.60;99.90;;;;;;5021724;28;20120;-58
2022/01/15 00:40:44;;;;;;;0.00;0.00;;;5.80;99.90;;;;;;5021254;28;20133;-57
2022/01/15 00:43:09;;;;;;;0.00;0.00;;;5.60;99.90;;;;;;5021080;28;20087;-58
2022/01/15 00:45:35;;;;;;;0.00;0.00;;;5.60;99.90;;;;;;5021207;28;20049;-57
2022/01/15 00:48:02;;;;;;;0.00;0.00;;;5.60;99.90;;;;;;5020070;28;20491;-58
2022/01/15 00:50:28;;;;;;;0.00;0.00;;;5.60;99.90;;;;;;5021244;28;20377;-58
2022/01/15 00:52:53;;;;;;;0.00;0.00;;;5.60;99.90;;;;;;5019118;28;20060;-57
2022/01/15 00:55:19;;;;;;;0.00;0.00;;;5.50;99.90;;;;;;5021290;28;20721;-57
2022/01/15 00:57:46;;;;;;;0.00;0.00;;;5.50;99.90;;;;;;5020846;28;20136;-57
2022/01/15 01:00:17;;;;;;;0.00;0.00;;;5.50;99.90;;;;;;5021257;28;20400;-58
2022/01/15 01:02:45;;;;;;;0.00;0.00;;;5.50;99.90;;;;;;5018743;28;20712;-58
2022/01/15 01:05:11;;;;;;;0.00;0.00;;;5.60;99.90;;;;;;5003164;28;20124;-58
2022/01/15 01:07:38;;;;;;;0.00;0.00;;;5.60;99.90;;;;;;5021232;28;20516;-60
2022/01/15 01:12:57;;;;;;;0.00;0.00;;;5.50;99.90;;;;;;5003586;28;20075;-57
2022/01/15 01:23:33;;;;;;;0.00;0.00;;;5.50;99.90;;;;;;5020866;28;20107;-57
2022/01/15 01:26:08;;;;;;;0.00;0.00;;;5.50;99.90;;;;;;5002593;28;20412;-57
2022/01/15 01:28:39;;;;;;;0.00;0.00;;;5.50;99.90;;;;;;5027168;28;20074;-57
2022/01/15 01:31:15;;;;;;;0.00;0.00;;;5.60;99.90;;;;;;5022990;28;20049;-57
2022/01/15 01:33:49;;;;;;;0.00;0.00;;;5.60;99.90;;;;;;5019565;28;20049;-58
2022/01/15 01:36:23;;;;;;;0.00;0.00;;;5.50;99.90;;;;;;5020274;28;20091;-58
2022/01/15 01:38:55;;;;;;;0.00;0.00;;;5.50;99.90;;;;;;5020187;28;20501;-58
2022/01/15 01:41:22;;;;;;;0.00;0.00;;;5.50;99.90;;;;;;5001827;28;20049;-58
2022/01/15 01:43:54;;;;;;;0.00;0.00;;;5.50;99.90;;;;;;5020061;28;20045;-57
2022/01/15 01:46:34;;;;;;;0.00;0.00;;;5.50;99.90;;;;;;5019505;28;20044;-58
2022/01/15 01:49:01;;;;;;;0.00;0.00;;;5.40;99.90;;;;;;5002182;28;20445;-57
2022/01/15 01:51:33;;;;;;;0.00;0.00;;;5.40;99.90;;;;;;5002508;28;20057;-57
2022/01/15 01:54:04;;;;;;;0.00;0.00;;;5.40;99.90;;;;;;5002288;28;20053;-58
2022/01/15 01:56:30;;;;;;;0.00;0.00;;;6.10;99.90;;;;;;5019245;28;20134;-58
2022/01/15 01:58:56;;;;;;;0.00;0.00;;;5.50;99.90;;;;;;5019917;28;20110;-57
2022/01/15 02:01:22;;;;;;;0.00;0.00;;;5.50;99.90;;;;;;5001769;28;20054;-57
2022/01/15 02:03:49;;;;;;;0.00;0.00;;;5.40;99.90;;;;;;5019627;28;20052;-58
2022/01/15 02:06:15;;;;;;;0.00;0.00;;;5.40;99.90;;;;;;5019854;28;20044;-57
2022/01/15 02:08:42;;;;;;;0.00;0.00;;;5.40;99.90;;;;;;5019784;28;20041;-58
2022/01/15 02:11:07;;;;;;;0.00;0.00;;;5.40;99.90;;;;;;5042356;22;20034;-59
2022/01/15 02:13:37;;;;;;;0.00;0.00;;;6.60;99.90;;;;;;5030844;28;20049;-59
2022/01/15 02:16:03;;;;;;;0.00;0.00;;;5.40;99.90;;;;;;5023766;28;20128;-59
2022/01/15 02:18:29;;;;;;;0.00;0.00;;;5.40;99.90;;;;;;5057344;28;20083;-59
2022/01/15 02:23:44;;;;;;;0.00;0.00;;;5.40;99.90;;;;;;5064053;28;20057;-59
2022/01/15 02:26:15;;;;;;;0.00;0.00;;;5.40;99.90;;;;;;5046045;28;20048;-59
2022/01/15 02:28:44;;;;;;;0.00;0.00;;;5.40;99.90;;;;;;5020179;28;20045;-59
2022/01/15 02:31:13;;;;;;;0.00;0.00;;;5.30;99.90;;;;;;5023344;28;20104;-60
2022/01/15 02:33:40;;;;;;;0.00;0.00;;;5.60;99.90;;;;;;5024048;28;20049;-59
2022/01/15 02:36:12;;;;;;;0.00;0.00;;;5.30;99.90;;;;;;5021796;28;20400;-59
2022/01/15 02:38:39;;;;;;;0.00;0.00;;;5.30;99.90;;;;;;5024217;28;20496;-59
2022/01/15 02:41:05;;;;;;;0.00;0.00;;;5.30;99.90;;;;;;5023722;28;20084;-59
2022/01/15 02:43:33;;;;;;;0.00;0.00;;;5.20;99.90;;;;;;5005584;28;20049;-59
2022/01/15 02:46:19;;;;;;;0.00;0.00;;;5.60;99.90;;;;;;5022478;28;20187;-60
2022/01/15 02:48:58;;;;;;;0.00;0.00;;;5.30;99.90;;;;;;5023325;28;20041;-59
2022/01/15 02:51:34;;;;;;;0.00;0.00;;;5.30;99.90;;;;;;5023265;28;20413;-59
2022/01/15 02:54:00;;;;;;;0.00;0.00;;;5.40;99.90;;;;;;5005687;28;20050;-59
2022/01/15 02:56:32;;;;;;;0.00;0.00;;;5.40;99.90;;;;;;5005868;28;20052;-59
2022/01/15 02:58:58;;;;;;;0.00;0.00;;;5.40;99.90;;;;;;5023170;28;20045;-59
2022/01/15 03:01:25;;;;;;;0.00;0.00;;;5.40;99.90;;;;;;5022568;28;20049;-59
2022/01/15 03:03:51;;;;;;;0.00;0.00;;;5.40;99.90;;;;;;5022995;28;20408;-59
2022/01/15 03:06:19;;;;;;;0.00;0.00;;;6.70;99.90;;;;;;5022252;28;20432;-59
2022/01/15 03:08:46;;;;;;;0.00;0.00;;;5.40;99.90;;;;;;5022927;28;20068;-59
2022/01/15 03:11:12;;;;;;;0.00;0.00;;;5.80;99.90;;;;;;5022729;28;20508;-59
2022/01/15 03:13:40;;;;;;;0.00;0.00;;;5.30;99.90;;;;;;5023279;28;20456;-59
2022/01/15 03:16:07;;;;;;;0.00;0.00;;;5.30;99.90;;;;;;5021722;28;20041;-62
2022/01/15 03:18:33;;;;;;;0.00;0.00;;;5.30;99.90;;;;;;5023017;28;20049;-59
2022/01/15 03:20:59;;;;;;;0.00;0.00;;;5.30;99.90;;;;;;5021403;28;20037;-59
2022/01/15 03:23:24;;;;;;;0.00;0.00;;;5.30;99.90;;;;;;5022203;28;20046;-59
2022/01/15 03:25:50;;;;;;;0.00;0.00;;;5.40;99.90;;;;;;4987637;28;20056;-59
2022/01/15 03:28:15;;;;;;;0.00;0.00;;;5.30;99.90;;;;;;5027766;28;20099;-59
2022/01/15 03:30:41;;;;;;;0.00;0.00;;;5.30;99.90;;;;;;5021281;28;20053;-60
2022/01/15 03:33:07;;;;;;;0.00;0.00;;;5.30;99.90;;;;;;5021305;28;20038;-59
2022/01/15 03:35:34;;;;;;;0.00;0.00;;;5.30;99.90;;;;;;5022491;28;20140;-59
2022/01/15 03:38:00;;;;;;;0.00;0.00;;;5.30;99.90;;;;;;5022243;28;20037;-60
2022/01/15 03:40:25;;;;;;;0.00;0.00;;;5.30;99.90;;;;;;5022491;28;20041;-59
2022/01/15 03:42:51;;;;;;;0.00;0.00;;;5.30;99.90;;;;;;5021705;28;20056;-59
2022/01/15 03:45:17;;;;;;;0.00;0.00;;;5.30;99.90;;;;;;5022706;28;20079;-59
2022/01/15 03:47:44;;;;;;;0.00;0.00;;;5.30;99.90;;;;;;5021403;28;20045;-59
2022/01/15 03:50:11;;;;;;;0.00;0.00;;;5.40;99.90;;;;;;5022895;28;20531;-59
2022/01/15 03:52:36;;;;;;;0.00;0.00;;;5.30;99.90;;;;;;5021781;28;20396;-59
2022/01/15 03:55:05;;;;;;;0.00;0.00;;;5.30;99.90;;;;;;5022088;28;20037;-59
2022/01/15 03:57:30;;;;;;;0.00;0.00;;;5.30;99.90;;;;;;5022320;28;20385;-59
2022/01/15 03:59:56;;;;;;;0.00;0.00;;;5.30;99.90;;;;;;5021510;28;20042;-59
2022/01/15 04:02:22;;;;;;;0.00;0.00;;;5.40;99.90;;;;;;5003509;28;20060;-58
2022/01/15 04:04:47;;;;;;;0.00;0.00;;;5.30;99.90;;;;;;5022072;28;20103;-58
2022/01/15 04:07:13;;;;;;;0.00;0.00;;;6.80;99.90;;;;;;5022370;28;20045;-59
2022/01/15 04:09:39;;;;;;;0.00;0.00;;;5.30;99.90;;;;;;5004051;28;20634;-59
2022/01/15 04:12:04;;;;;;;0.00;0.00;;;5.30;99.90;;;;;;5021394;28;20243;-58
2022/01/15 04:14:30;;;;;;;0.00;0.00;;;5.30;99.90;;;;;;5004041;28;20287;-58
2022/01/15 04:16:56;;;;;;;0.00;0.00;;;5.30;99.90;;;;;;5020588;28;20746;-59
2022/01/15 04:19:23;;;;;;;0.00;0.00;;;5.30;99.90;;;;;;5021405;28;20041;-58
2022/01/15 04:21:49;;;;;;;0.00;0.00;;;5.30;99.90;;;;;;5021533;28;20041;-59
2022/01/15 04:24:15;;;;;;;0.00;0.00;;;5.30;99.90;;;;;;5022113;28;20373;-59
2022/01/15 04:26:40;;;;;;;0.00;0.00;;;5.20;99.90;;;;;;5021812;28;20044;-61
2022/01/15 04:29:06;;;;;;;0.00;0.00;;;5.30;99.90;;;;;;5032281;28;20563;-59
2022/01/15 04:31:49;;;;;;;0.00;0.00;;;5.20;99.90;;;;;;5020868;28;20041;-58
2022/01/15 04:34:19;;;;;;;0.00;0.00;;;5.20;99.90;;;;;;5003670;28;20103;-58
2022/01/15 04:36:46;;;;;;;0.00;0.00;;;5.20;99.90;;;;;;5020197;28;20492;-59
2022/01/15 04:39:12;;;;;;;0.00;0.00;;;5.20;99.90;;;;;;5021432;28;20927;-59
2022/01/15 04:41:38;;;;;;;0.00;0.00;;;5.20;99.90;;;;;;5021677;28;20042;-58
2022/01/15 04:44:05;;;;;;;0.00;0.00;;;5.20;99.90;;;;;;5020672;28;20377;-58
2022/01/15 04:46:32;;;;;;;0.00;0.00;;;5.20;99.90;;;;;;5003186;28;20571;-58
2022/01/15 04:48:58;;;;;;;0.00;0.00;;;5.20;99.90;;;;;;5021361;28;20054;-59
2022/01/15 04:51:24;;;;;;;0.00;0.00;;;5.20;99.90;;;;;;5021253;28;20076;-58
2022/01/15 04:53:50;;;;;;;0.00;0.00;;;5.30;99.90;;;;;;5020346;28;20117;-58
2022/01/15 04:56:15;;;;;;;0.00;0.00;;;5.30;99.90;;;;;;5021150;28;20143;-58
2022/01/15 04:58:41;;;;;;;0.00;0.00;;;5.30;99.90;;;;;;5019673;28;20053;-59
2022/01/15 05:01:06;;;;;;;0.00;0.00;;;5.30;99.90;;;;;;5020619;28;20073;-59
2022/01/15 05:03:33;;;;;;;0.00;0.00;;;5.30;99.90;;;;;;5020535;28;20048;-58
2022/01/15 05:05:59;;;;;;;0.00;0.00;;;5.30;99.90;;;;;;5020996;28;20045;-58
2022/01/15 05:08:24;;;;;;;0.00;0.00;;;5.30;99.90;;;;;;5020898;28;20051;-58
2022/01/15 05:10:52;;;;;;;0.00;0.00;;;5.20;99.90;;;;;;5020537;28;20487;-59
2022/01/15 05:13:23;;;;;;;0.00;0.00;;;5.20;99.90;;;;;;5020513;28;20053;-59
2022/01/15 05:15:49;;;;;;;0.00;0.00;;;5.20;99.90;;;;;;5019912;28;20059;-58
2022/01/15 05:18:14;;;;;;;0.00;0.00;;;5.20;99.90;;;;;;5020679;28;20117;-59
2022/01/15 05:20:44;;;;;;;0.00;0.00;;;5.20;99.90;;;;;;5019975;28;20115;-59
2022/01/15 05:23:11;;;;;;;0.00;0.00;;;5.20;99.90;;;;;;5021073;28;20581;-58
2022/01/15 05:25:37;;;;;;;0.00;0.00;;;5.20;99.90;;;;;;5020878;28;20041;-58
2022/01/15 05:28:03;;;;;;;0.00;0.00;;;5.20;99.90;;;;;;5023724;28;20106;-59
2022/01/15 05:30:30;;;;;;;0.00;0.00;;;5.20;99.90;;;;;;5027341;28;20503;-58
2022/01/15 05:32:56;;;;;;;0.00;0.00;;;5.30;99.90;;;;;;5002082;28;20041;-58
2022/01/15 05:35:26;;;;;;;0.00;0.00;;;5.20;99.90;;;;;;5020321;28;20048;-58
2022/01/15 05:37:56;;;;;;;0.00;0.00;;;5.20;99.90;;;;;;5019422;28;20057;-59
2022/01/15 05:40:22;;;;;;;0.00;0.00;;;5.20;99.90;;;;;;5020258;28;20673;-58
2022/01/15 05:42:48;;;;;;;0.00;0.00;;;5.20;99.90;;;;;;5020018;28;20096;-58
2022/01/15 05:45:14;;;;;;;0.00;0.00;;;5.20;99.90;;;;;;5020258;28;20045;-59
2022/01/15 05:47:40;;;;;;;0.00;0.00;;;5.10;99.90;;;;;;5018712;28;20057;-58
2022/01/15 05:50:07;;;;;;;0.00;0.00;;;5.20;99.90;;;;;;5020593;28;20049;-59
2022/01/15 05:52:33;;;;;;;0.00;0.00;;;5.20;99.90;;;;;;5020243;28;20124;-58
2022/01/15 05:54:59;;;;;;;0.00;0.00;;;5.20;99.90;;;;;;5019850;28;20152;-59
2022/01/15 05:57:25;;;;;;;0.00;0.00;;;5.10;99.90;;;;;;5018748;28;20071;-59
2022/01/15 05:59:53;;;;;;;0.00;0.00;;;5.20;99.90;;;;;;5019731;28;20443;-59
2022/01/15 06:02:20;;;;;;;0.00;0.00;;;5.10;99.90;;;;;;5018855;28;20140;-59
2022/01/15 06:04:45;;;;;;;0.00;0.00;;;5.20;99.90;;;;;;5019059;28;20462;-59
2022/01/15 06:07:11;;;;;;;0.00;0.00;;;5.20;99.90;;;;;;5019918;28;20115;-59
2022/01/15 06:09:37;;;;;;;0.00;0.00;;;5.20;99.90;;;;;;5020568;28;20073;-59
2022/01/15 06:12:03;;;;;;;0.00;0.00;;;5.10;99.90;;;;;;5018382;28;20072;-59
2022/01/15 06:14:30;;;;;;;0.00;0.00;;;5.10;99.90;;;;;;5019126;28;20488;-58
2022/01/15 06:16:57;;;;;;;0.00;0.00;;;5.10;99.90;;;;;;5018919;28;20084;-59
2022/01/15 06:19:22;;;;;;;0.00;0.00;;;5.10;99.90;;;;;;5019851;28;20041;-59
2022/01/15 06:21:48;;;;;;;0.00;0.00;;;4.80;99.90;;;;;;5019709;28;20045;-58
2022/01/15 06:24:13;;;;;;;0.00;0.00;;;5.10;99.90;;;;;;5019059;28;20058;-59
2022/01/15 06:26:39;;;;;;;0.00;0.00;;;5.00;99.90;;;;;;5020290;28;20535;-59
2022/01/15 06:29:05;;;;;;;0.00;0.00;;;5.10;99.90;;;;;;5030939;28;20519;-58
2022/01/15 06:31:31;;;;;;;0.00;0.00;;;5.10;99.90;;;;;;5019165;28;20523;-60
2022/01/15 06:33:58;;;;;;;0.00;0.00;;;5.10;99.90;;;;;;5001209;28;20072;-59
2022/01/15 06:36:23;;;;;;;0.00;0.00;;;5.70;99.90;;;;;;5019631;28;20486;-58
2022/01/15 06:38:49;;;;;;;0.00;0.00;;;5.10;99.90;;;;;;5019473;28;20049;-59
2022/01/15 06:41:15;;;;;;;0.00;0.00;;;5.10;99.90;;;;;;5018741;28;20498;-59
2022/01/15 06:43:41;;;;;;;0.00;0.00;;;5.10;99.90;;;;;;5019495;28;20041;-61
2022/01/15 06:46:06;;;;;;;0.00;0.00;;;5.00;99.90;;;;;;5019691;28;20412;-58
2022/01/15 06:48:32;;;;;;;0.00;0.00;;;5.10;99.90;;;;;;5019825;28;20065;-59
2022/01/15 06:50:58;;;;;;;0.00;0.00;;;5.10;99.90;;;;;;5018880;28;20638;-58
2022/01/15 06:53:24;;;;;;;0.00;0.00;;;5.00;99.90;;;;;;5019499;28;20056;-58
2022/01/15 06:55:52;;;;;;;0.00;0.00;;;5.10;99.90;;;;;;5017802;28;20476;-58
2022/01/15 06:58:19;;;;;;;0.00;0.00;;;5.10;99.90;;;;;;5019692;28;20141;-58
2022/01/15 07:00:44;;;;;;;0.00;0.00;;;5.00;99.90;;;;;;5019448;28;20045;-58
2022/01/15 07:03:10;;;;;;;0.00;0.00;;;5.10;99.90;;;;;;5023407;28;20037;-60
2022/01/15 07:05:36;;;;;;;0.00;0.00;;;5.10;99.90;;;;;;5023681;28;20095;-58
2022/01/15 07:08:02;;;;;;;0.00;0.00;;;5.10;99.90;;;;;;5022877;28;20568;-59
2022/01/15 07:10:28;;;;;;;0.00;0.00;;;5.10;99.90;;;;;;5022253;28;20092;-58
2022/01/15 07:12:54;;;;;;;0.00;0.00;;;5.10;99.90;;;;;;5022395;28;20061;-58
2022/01/15 07:15:20;;;;;;;0.00;0.00;;;5.10;99.90;;;;;;5022601;28;20049;-59
2022/01/15 07:17:48;;;;;;;0.00;0.00;;;5.00;99.90;;;;;;5021842;28;20076;-58
2022/01/15 07:20:15;;;;;;;0.00;0.00;;;5.00;99.90;;;;;;5022721;28;20053;-59
2022/01/15 07:22:41;;;;;;;0.00;0.00;;;5.00;99.90;;;;;;5022874;28;20044;-61
2022/01/15 07:25:08;;;;;;;0.00;0.00;;;5.10;99.90;;;;;;5004919;28;20077;-58
2022/01/15 07:27:34;;;;;;;0.00;0.00;;;5.00;99.90;;;;;;5024537;28;20060;-59
2022/01/15 07:30:01;;;;;;;0.00;0.00;;;5.00;99.90;;;;;;5031152;28;20423;-58
2022/01/15 07:32:27;;;;;;;0.00;0.00;;;6.00;99.90;;;;;;5020368;28;20572;-58
2022/01/15 07:34:52;;;;;;;0.00;0.00;;;6.10;99.90;;;;;;5021974;28;20105;-58
2022/01/15 07:37:18;;;;;;;0.00;0.00;;;5.00;99.90;;;;;;5021914;28;20408;-59
2022/01/15 07:39:44;;;;;;;0.00;0.00;;;5.00;99.90;;;;;;5022222;28;20623;-58
2022/01/15 07:42:10;;;;;;;0.00;0.00;;;5.00;99.90;;;;;;5022358;28;20053;-59
2022/01/15 07:44:36;;;;;;;0.00;0.00;;;5.00;99.90;;;;;;5022667;28;20041;-58
2022/01/15 07:47:02;;;;;;;0.00;0.00;;;5.00;99.90;;;;;;5020964;28;20507;-58
2022/01/15 07:49:28;;;;;;;0.00;0.00;;;5.00;99.90;;;;;;5021719;28;20045;-58
2022/01/15 07:51:53;;;;;;;0.00;0.00;;;5.00;99.90;;;;;;5021568;28;20034;-58
2022/01/15 07:54:19;;;;;;;0.00;0.00;;;5.20;99.90;;;;;;5022439;28;20088;-58
2022/01/15 07:56:45;;;;;;;0.00;0.00;;;5.00;99.90;;;;;;5019811;28;20045;-58
2022/01/15 07:59:10;;;;;;;0.00;0.00;;;5.00;99.90;;;;;;5022122;28;20057;-61
2022/01/15 08:01:36;;;;;;;0.00;0.00;;;5.00;99.90;;;;;;5021827;28;20650;-58
2022/01/15 08:04:03;;;;;;;0.00;0.00;;;5.00;99.90;;;;;;5021687;28;20037;-58
2022/01/15 08:06:29;;;;;;;0.00;0.00;;;5.10;99.90;;;;;;5021805;28;20040;-58
2022/01/15 08:08:55;;;;;;;0.00;0.00;;;5.00;99.90;;;;;;5021727;28;20456;-58
2022/01/15 08:11:20;;;;;;;0.00;0.00;;;5.00;99.90;;;;;;5021565;28;20050;-58
2022/01/15 08:13:46;;;;;;;0.00;0.00;;;5.00;99.90;;;;;;5020447;28;20517;-58
2022/01/15 08:16:12;;;;;;;0.00;0.00;;;5.10;99.90;;;;;;5020854;28;20140;-58
2022/01/15 08:18:38;;;;;;;0.00;0.00;;;5.00;99.90;;;;;;5004346;28;20045;-58
2022/01/15 08:21:05;;;;;;;0.00;0.00;;;5.10;99.90;;;;;;5003682;28;20052;-58
2022/01/15 08:23:31;;;;;;;0.00;0.00;;;5.00;99.90;;;;;;5020727;28;20390;-58
2022/01/15 08:25:58;;;;;;;0.00;0.00;;;5.10;99.90;;;;;;5021621;28;20409;-58
2022/01/15 08:28:25;;;;;;;0.00;0.00;;;5.00;99.90;;;;;;5027779;28;20502;-58
2022/01/15 08:30:50;;;;;;;0.00;0.00;;;5.10;99.90;;;;;;5025258;28;20431;-59
2022/01/15 08:33:17;;;;;;;0.00;0.00;;;5.00;99.90;;;;;;5020372;28;20049;-59
2022/01/15 08:35:42;;;;;;;0.00;0.00;;;5.00;99.90;;;;;;5021335;28;20052;-58
2022/01/15 08:38:08;;;;;;;0.00;0.00;;;5.10;99.90;;;;;;5021825;28;20120;-58
2022/01/15 08:40:34;;;;;;;0.00;0.00;;;5.00;99.90;;;;;;5021097;28;20041;-59
2022/01/15 08:43:01;;;;;;;0.00;0.00;;;5.10;99.90;;;;;;5020293;28;20053;-59
2022/01/15 08:45:27;;;;;;;0.00;0.00;;;5.10;99.90;;;;;;5020818;28;20049;-58
2022/01/15 08:47:54;;;;;;;0.00;0.00;;;5.10;99.90;;;;;;5003296;28;20057;-58
2022/01/15 08:50:21;;;;;;;0.00;0.00;;;5.10;99.90;;;;;;5020109;28;20041;-59
2022/01/15 08:52:47;;;;;;;0.00;0.00;;;5.10;99.90;;;;;;5020916;28;20049;-61
2022/01/15 08:55:13;;;;;;;0.00;0.00;;;5.10;99.90;;;;;;5021070;28;20060;-59
2022/01/15 08:57:40;;;;;;;0.00;0.00;;;5.20;99.90;;;;;;5020870;28;20623;-58
2022/01/15 09:00:12;;;;;;;0.00;0.00;;;5.20;99.90;;;;;;5020333;28;20092;-58
2022/01/15 09:02:38;;;;;;;0.00;0.00;;;5.20;99.90;;;;;;5020817;28;20500;-58
2022/01/15 09:05:04;;;;;;;0.00;0.00;;;5.20;99.90;;;;;;5020782;28;20044;-58
2022/01/15 09:07:30;;;;;;;0.00;0.00;;;5.30;99.90;;;;;;5002877;28;20845;-58
2022/01/15 09:09:56;;;;;;;0.00;0.00;;;5.60;99.90;;;;;;5020115;28;20412;-58
2022/01/15 09:12:22;;;;;;;0.00;0.00;;;5.20;99.90;;;;;;5020514;28;20054;-58
2022/01/15 09:14:58;;;;;;;0.00;0.00;;;5.20;99.90;;;;;;5020650;28;20117;-58
2022/01/15 09:17:25;;;;;;;0.00;0.00;;;5.30;99.90;;;;;;5001804;28;20057;-58
2022/01/15 09:19:51;;;;;;;0.00;0.00;;;5.20;99.90;;;;;;5020396;28;20095;-58
2022/01/15 09:22:17;;;;;;;0.00;0.00;;;5.20;99.90;;;;;;5019890;28;20049;-58
2022/01/15 09:24:46;;;;;;;0.00;0.00;;;5.30;99.90;;;;;;5019126;28;20459;-59
2022/01/15 09:30:12;;;;;;;0.00;0.00;;;5.30;99.90;;;;;;5014368;28;20050;-59
2022/01/15 09:32:40;;;;;;;0.00;0.00;;;5.30;99.90;;;;;;5020642;28;20037;-59
2022/01/15 09:35:06;;;;;;;0.00;0.00;;;5.30;99.90;;;;;;5020120;28;20055;-59
2022/01/15 09:37:32;;;;;;;0.00;0.00;;;5.30;99.90;;;;;;5020263;28;20179;-59
2022/01/15 09:39:58;;;;;;;0.00;0.00;;;5.50;99.90;;;;;;5019498;28;20353;-59
2022/01/15 09:42:24;;;;;;;0.00;0.00;;;5.70;99.90;;;;;;5019824;28;20049;-60
2022/01/15 09:44:53;;;;;;;0.00;0.00;;;5.30;99.90;;;;;;5019839;28;20049;-60
2022/01/15 09:47:23;;;;;;;0.00;0.00;;;5.40;99.90;;;;;;5019097;28;20045;-59
2022/01/15 09:49:50;;;;;;;0.00;0.00;;;5.40;99.90;;;;;;5020032;28;20049;-60
2022/01/15 09:52:17;;;;;;;0.00;0.00;;;5.40;99.90;;;;;;5020375;28;20049;-59
2022/01/15 09:54:43;;;;;;;0.00;0.00;;;5.40;99.90;;;;;;5019546;28;20046;-60
2022/01/15 09:57:09;;;;;;;0.00;0.00;;;5.30;99.90;;;;;;5019549;28;20053;-60
2022/01/15 09:59:35;;;;;;;0.00;0.00;;;5.40;99.90;;;;;;5020226;28;20083;-59
2022/01/15 10:02:04;;;;;;;3.10;0.47;;;5.40;99.90;;;;;;5018426;28;20085;-60
2022/01/15 10:04:32;;;;;;;0.00;0.00;;;5.40;99.90;;;;;;5019488;28;20053;-59
2022/01/15 10:07:22;;;;;;;0.00;0.00;;;5.40;99.90;;;;;;5019689;28;20092;-59
2022/01/15 10:09:49;;;;;;;0.00;0.00;;;5.40;99.90;;;;;;5019212;28;20046;-62
2022/01/15 10:12:31;;;;;;;0.00;0.00;;;5.30;99.90;;;;;;5018845;28;20057;-59
2022/01/15 10:15:04;;;;;;;0.00;0.00;;;5.30;99.90;;;;;;5018812;28;20052;-61
2022/01/15 10:17:33;;;;;;;0.00;0.00;;;5.30;99.90;;;;;;5017963;28;20061;-60
2022/01/15 10:20:00;;;;;;;0.00;0.00;;;5.30;99.90;;;;;;5019461;28;20053;-59
2022/01/15 10:22:28;;;;;;;0.00;0.00;;;5.40;99.90;;;;;;5021764;28;20119;-61
2022/01/15 10:24:55;;;;;;;0.17;0.17;;;5.40;99.90;;;;;;5038533;28;20051;-60
2022/01/15 10:27:26;;;;;;;0.00;0.00;;;5.40;99.90;;;;;;5037035;28;20499;-59
2022/01/15 10:29:57;;;;;;;0.10;0.10;;;5.40;99.90;;;;;;5031562;28;20055;-61
2022/01/15 10:32:24;;;;;;;0.00;0.00;;;5.40;99.90;;;;;;5002142;28;20168;-60
2022/01/15 10:34:50;;;;;;;0.00;0.00;;;5.50;99.90;;;;;;5021173;28;20046;-59
2022/01/15 10:37:22;;;;;;;0.10;0.10;;;6.30;99.90;;;;;;5005854;28;20415;-60
2022/01/15 10:40:10;;;;;;;0.00;0.00;;;6.90;99.90;;;;;;5005527;28;20048;-59
2022/01/15 10:42:36;;;;;;;0.20;0.20;;;5.40;99.90;;;;;;5023830;28;20069;-59
2022/01/15 10:45:12;;;;;;;0.00;0.00;;;5.40;99.90;;;;;;5022543;28;20092;-59
2022/01/15 10:47:48;;;;;;;0.00;0.00;;;5.40;99.90;;;;;;5022927;28;20131;-59
2022/01/15 10:50:30;;;;;;;0.00;0.00;;;5.60;99.90;;;;;;5023769;28;20425;-60
2022/01/15 10:53:03;;;;;;;0.00;0.00;;;5.40;99.90;;;;;;5022163;28;20115;-59
2022/01/15 10:55:31;;;;;;;0.00;0.00;;;5.50;99.90;;;;;;5023267;28;20052;-61
2022/01/15 10:57:58;;;;;;;0.00;0.00;;;5.50;99.90;;;;;;5005092;28;20057;-59
2022/01/15 11:00:36;;;;;;;0.00;0.00;;;5.40;99.90;;;;;;5022193;28;20681;-60
2022/01/15 11:03:10;;;;;;;0.08;0.05;;;5.40;99.90;;;;;;5005423;28;20053;-60
2022/01/15 11:05:44;;;;;;;0.00;0.00;;;5.40;99.90;;;;;;5023654;28;20053;-60
2022/01/15 11:08:17;;;;;;;0.00;0.00;;;5.40;99.90;;;;;;5022960;28;20142;-59
2022/01/15 11:10:50;;;;;;;0.00;0.00;;;5.30;99.90;;;;;;5004805;28;20124;-59
2022/01/15 11:13:19;;;;;;;0.10;0.10;;;5.30;99.90;;;;;;4988478;28;20061;-59
2022/01/15 11:15:48;;;;;;;0.00;0.00;;;5.40;99.90;;;;;;4998794;28;20125;-60
2022/01/15 11:18:22;;;;;;;0.00;0.00;;;5.30;99.90;;;;;;4986357;28;20048;-60
2022/01/15 11:20:50;;;;;;;0.00;0.00;;;5.30;99.90;;;;;;5001324;28;20053;-59
2022/01/15 11:23:19;;;;;;;0.00;0.00;;;5.30;99.90;;;;;;5001594;28;20129;-59
2022/01/15 11:25:45;;;;;;;0.05;0.05;;;5.20;99.90;;;;;;5002098;28;20073;-60
2022/01/15 11:28:12;;;;;;;0.30;0.30;;;5.10;99.90;;;;;;4994770;28;20058;-61
2022/01/15 11:30:38;;;;;;;0.10;0.10;;;5.10;99.90;;;;;;4993555;28;20547;-59
2022/01/15 11:33:04;;;;;;;0.00;0.00;;;5.10;99.90;;;;;;5016918;28;20053;-59
2022/01/15 11:35:48;;;;;;;0.13;0.08;;;5.20;99.90;;;;;;5000919;28;20140;-59
2022/01/15 11:38:37;;;;;;;0.25;0.25;;;5.20;99.90;;;;;;5001944;28;20046;-59
2022/01/15 11:41:03;;;;;;;0.10;0.10;;;5.20;99.90;;;;;;5002187;28;20511;-59
2022/01/15 11:43:31;;;;;;;1.45;0.70;;;5.20;99.90;;;;;;5002388;28;20042;-59
2022/01/15 11:46:01;;;;;;;0.00;0.00;;;5.20;99.90;;;;;;4998226;28;20046;-59
2022/01/15 11:48:29;;;;;;;0.00;0.00;;;5.50;99.90;;;;;;5001987;28;20042;-59
2022/01/15 11:51:13;;;;;;;0.10;0.10;;;5.30;99.90;;;;;;5000515;28;20041;-58
2022/01/15 11:53:47;;;;;;;0.20;0.20;;;5.30;99.90;;;;;;5002957;28;20455;-59
2022/01/15 11:56:25;;;;;;;0.38;0.30;;;5.40;99.90;;;;;;5002290;28;20050;-59
2022/01/15 11:58:52;;;;;;;0.00;0.00;;;5.40;99.90;;;;;;5001260;28;20045;-59
2022/01/15 12:01:38;;;;;;;0.10;0.10;;;5.40;99.90;;;;;;5000297;28;20046;-59
2022/01/15 12:04:28;;;;;;;1.45;0.80;;;5.40;99.90;;;;;;5001310;28;20113;-61
2022/01/15 12:07:04;;;;;;;0.10;0.10;;;5.50;99.90;;;;;;5001447;28;20053;-61
2022/01/15 12:09:42;;;;;;;0.10;0.10;;;5.50;99.90;;;;;;5001171;28;20999;-59
2022/01/15 12:12:30;;;;;;;0.00;0.00;;;5.50;99.90;;;;;;5023697;28;20057;-58
2022/01/15 12:14:56;;;;;;;0.00;0.00;;;5.60;99.90;;;;;;5039493;28;20096;-59
2022/01/15 12:17:35;;;;;;;0.10;0.10;;;5.40;99.90;;;;;;5041582;28;20128;-59
2022/01/15 12:20:04;;;;;;;0.28;0.28;;;5.40;99.90;;;;;;5040917;28;20049;-59
2022/01/15 12:22:45;;;;;;;0.00;0.00;;;5.40;99.90;;;;;;5041006;28;20106;-58
2022/01/15 12:25:17;;;;;;;1.10;0.45;;;5.40;99.90;;;;;;5040916;28;20045;-59
2022/01/15 12:28:06;;;;;;;1.35;0.98;;;5.40;99.90;;;;;;5036320;28;20052;-61
2022/01/15 12:30:42;;;;;;;0.20;0.20;;;5.30;99.90;;;;;;5015019;28;20579;-59
2022/01/15 12:33:13;;;;;;;0.17;0.17;;;5.20;99.90;;;;;;5040344;28;20186;-59
2022/01/15 12:35:41;;;;;;;0.55;0.55;;;5.10;99.90;;;;;;5041648;28;20048;-59
2022/01/15 12:38:15;;;;;;;0.00;0.00;;;5.10;99.90;;;;;;5041566;28;20179;-58
2022/01/15 12:40:46;;;;;;;0.70;0.60;;;5.40;99.90;;;;;;5040624;28;20060;-60
2022/01/15 12:43:30;;;;;;;0.00;0.00;;;5.10;99.90;;;;;;5022825;28;20037;-59
2022/01/15 12:46:06;;;;;;;0.00;0.00;;;5.20;99.90;;;;;;5040044;28;20134;-59
2022/01/15 12:48:34;;;;;;;0.10;0.10;;;5.20;99.90;;;;;;5040591;28;20111;-58
2022/01/15 12:51:04;;;;;;;0.10;0.10;;;5.30;99.90;;;;;;5040838;28;20049;-59
2022/01/15 12:53:36;;;;;;;0.10;0.10;;;5.20;99.90;;;;;;5040742;28;20929;-59
2022/01/15 12:56:06;;;;;;;0.00;0.00;;;5.20;99.90;;;;;;5040508;28;20051;-58
2022/01/15 12:58:32;;;;;;;0.00;0.00;;;5.10;99.90;;;;;;5021953;28;20044;-59
2022/01/15 13:01:01;;;;;;;0.15;0.15;;;5.10;99.90;;;;;;5039229;28;20047;-60
2022/01/15 13:03:27;;;;;;;0.30;0.30;;;5.00;99.90;;;;;;5040103;28;20415;-66
2022/01/15 13:05:59;;;;;;;0.10;0.10;;;4.90;99.90;;;;;;5039116;28;20040;-66
2022/01/15 13:08:41;;;;;;;0.28;0.28;;;4.90;99.90;;;;;;5039132;28;20083;-66
2022/01/15 13:13:51;;;;;;;0.10;0.10;;;4.70;99.90;;;;;;5040472;28;20044;-66
2022/01/15 13:16:19;;;;;;;1.65;0.88;;;4.70;99.90;;;;;;5039357;28;20095;-66
2022/01/15 13:18:48;;;;;;;0.00;0.00;;;4.70;99.90;;;;;;5039701;28;20072;-67
2022/01/15 13:21:19;;;;;;;0.00;0.00;;;4.70;99.90;;;;;;5021833;28;20271;-67
2022/01/15 13:23:46;;;;;;;0.00;0.00;;;4.70;99.90;;;;;;5038981;28;20060;-67